Time;durP1;ratioP1;P1;durP2;ratioP2;P2;SDS_P1;SDS_P2;PMS_P1;PMS_P2;Temp;Humidity;BMP_temperature;BMP_pressure;BME280_temperature;BME280_humidity;BME280_pressure;Samples;Min_cycle;Max_cycle;Signal;HPM_P1;HPM_P2
2022/12/17 13:06:49;;;;;;;79.55;38.58;;;2.20;99.90;;;;;;5025262;28;20209;-77
2022/12/17 13:09:15;;;;;;;78.85;37.67;;;2.20;99.90;;;;;;5053971;28;20648;-80
2022/12/17 13:12:01;;;;;;;87.13;40.58;;;2.20;99.90;;;;;;5030734;28;20188;-76
2022/12/17 13:14:34;;;;;;;86.90;40.45;;;2.20;99.90;;;;;;5011934;28;20238;-75
2022/12/17 13:17:15;;;;;;;81.28;39.35;;;2.20;99.90;;;;;;5023998;28;20180;-77
2022/12/17 13:19:44;;;;;;;81.43;40.25;;;2.20;99.90;;;;;;5025921;28;20690;-77
2022/12/17 13:22:14;;;;;;;85.82;39.67;;;2.20;99.90;;;;;;5031770;28;20200;-76
2022/12/17 13:24:42;;;;;;;79.50;39.85;;;2.20;99.90;;;;;;5031596;28;20250;-75
2022/12/17 13:27:27;;;;;;;78.45;35.65;;;2.20;99.90;;;;;;5028109;28;20179;-76
2022/12/17 13:29:53;;;;;;;82.30;39.90;;;2.20;99.90;;;;;;5013847;28;20212;-76
2022/12/17 13:32:37;;;;;;;76.45;36.80;;;2.30;99.90;;;;;;5023701;28;20659;-76
2022/12/17 13:35:36;;;;;;;84.15;39.22;;;2.30;99.90;;;;;;5019910;28;20231;-75
2022/12/17 13:38:04;;;;;;;88.72;40.97;;;2.20;99.90;;;;;;5013113;28;20251;-77
2022/12/17 13:40:30;;;;;;;78.57;36.72;;;2.20;99.90;;;;;;5041972;28;20180;-76
2022/12/17 13:42:56;;;;;;;83.70;39.25;;;2.20;99.90;;;;;;5053528;28;20572;-79
2022/12/17 13:45:24;;;;;;;83.30;39.95;;;2.20;99.90;;;;;;5026599;28;20286;-75
2022/12/17 13:47:56;;;;;;;80.78;39.47;;;2.20;99.90;;;;;;5030736;28;20276;-77
2022/12/17 13:50:26;;;;;;;82.60;38.90;;;2.50;99.90;;;;;;5020244;28;20651;-76
2022/12/17 13:52:52;;;;;;;84.63;41.20;;;2.50;99.90;;;;;;5027734;28;20194;-76
2022/12/17 13:55:24;;;;;;;83.75;37.75;;;2.40;99.90;;;;;;5025949;28;20188;-76
2022/12/17 13:57:51;;;;;;;82.05;39.50;;;2.30;99.90;;;;;;5030674;28;20204;-76
2022/12/17 14:00:23;;;;;;;77.20;36.17;;;2.20;99.90;;;;;;5031252;28;20190;-75
2022/12/17 14:02:51;;;;;;;79.60;39.30;;;2.40;99.90;;;;;;5046700;28;20200;-77
2022/12/17 14:05:41;;;;;;;81.63;39.40;;;2.80;99.90;;;;;;5023300;28;20231;-77
2022/12/17 14:08:07;;;;;;;84.38;40.30;;;3.10;99.90;;;;;;5034693;28;20187;-83
2022/12/17 14:10:33;;;;;;;79.57;39.08;;;3.30;99.90;;;;;;5047044;28;20195;-77
2022/12/17 14:13:13;;;;;;;80.85;38.35;;;3.40;99.90;;;;;;5028273;28;20239;-77
2022/12/17 14:15:47;;;;;;;81.22;39.03;;;3.50;99.90;;;;;;5051038;28;20179;-76
2022/12/17 14:18:17;;;;;;;79.35;38.17;;;3.60;99.90;;;;;;5033386;28;20258;-78
2022/12/17 14:20:44;;;;;;;81.30;39.03;;;3.60;99.90;;;;;;5016188;28;20180;-75
2022/12/17 14:23:30;;;;;;;78.93;38.92;;;3.60;99.90;;;;;;5027522;28;20684;-77
2022/12/17 14:25:56;;;;;;;81.95;38.15;;;3.60;99.90;;;;;;5024684;28;20176;-76
2022/12/17 14:28:27;;;;;;;77.57;37.78;;;3.40;99.90;;;;;;5031725;28;20192;-77
2022/12/17 14:31:14;;;;;;;82.22;40.08;;;3.10;99.90;;;;;;5035730;28;20176;-78
2022/12/17 14:33:42;;;;;;;81.85;38.83;;;2.80;99.90;;;;;;5030917;28;20233;-77
2022/12/17 14:36:22;;;;;;;83.47;38.42;;;2.60;99.90;;;;;;5030097;28;20183;-76
2022/12/17 14:38:58;;;;;;;80.78;35.28;;;2.50;99.90;;;;;;5042090;28;20207;-79
2022/12/17 14:44:30;;;;;;;83.82;39.85;;;2.10;99.90;;;;;;4972395;28;20288;-75
2022/12/17 14:47:28;;;;;;;82.13;39.20;;;2.00;99.90;;;;;;4974470;28;20261;-75
2022/12/17 14:50:11;;;;;;;77.82;35.83;;;1.80;99.90;;;;;;5014630;28;20203;-76
2022/12/17 14:52:39;;;;;;;81.55;39.85;;;1.70;99.90;;;;;;5034078;28;20188;-76
2022/12/17 14:55:35;;;;;;;84.90;39.83;;;1.60;99.90;;;;;;5031527;28;20180;-77
2022/12/17 14:58:11;;;;;;;89.28;37.95;;;1.50;99.90;;;;;;5035660;28;20310;-78
2022/12/17 15:00:47;;;;;;;87.03;39.50;;;1.40;99.90;;;;;;5029988;28;20176;-76
2022/12/17 15:03:23;;;;;;;78.35;32.95;;;1.30;99.90;;;;;;5028110;28;20693;-76
2022/12/17 15:05:56;;;;;;;89.13;39.25;;;1.30;99.90;;;;;;5030950;28;20195;-77
2022/12/17 15:08:22;;;;;;;87.78;37.33;;;1.20;99.90;;;;;;5040187;28;20186;-76
2022/12/17 15:10:48;;;;;;;84.85;40.05;;;1.20;99.90;;;;;;5027808;28;20212;-77
2022/12/17 15:13:13;;;;;;;90.28;40.45;;;1.10;99.90;;;;;;5047653;28;20222;-79
2022/12/17 15:15:39;;;;;;;96.68;43.63;;;1.10;99.90;;;;;;5034843;28;20245;-76
2022/12/17 15:18:05;;;;;;;91.60;41.20;;;1.00;99.90;;;;;;5034855;28;20180;-81
2022/12/17 15:20:31;;;;;;;89.18;38.72;;;0.90;99.90;;;;;;5028499;28;20192;-76
2022/12/17 15:22:57;;;;;;;85.68;38.05;;;1.00;99.90;;;;;;5034045;28;20211;-76
2022/12/17 15:25:22;;;;;;;87.43;37.08;;;0.90;99.90;;;;;;5052182;28;20207;-76
2022/12/17 15:27:48;;;;;;;82.80;36.85;;;0.90;99.90;;;;;;5029306;28;20187;-76
2022/12/17 15:30:15;;;;;;;89.75;39.60;;;0.80;99.90;;;;;;5027024;28;20216;-77
2022/12/17 15:32:42;;;;;;;92.97;39.05;;;0.80;99.90;;;;;;5032425;28;20184;-77
2022/12/17 15:35:08;;;;;;;83.45;37.85;;;0.70;99.90;;;;;;5028294;28;20188;-78
2022/12/17 15:37:34;;;;;;;86.82;38.58;;;0.70;99.90;;;;;;5031112;28;20187;-75
2022/12/17 15:40:00;;;;;;;87.20;38.60;;;0.60;99.90;;;;;;5029280;28;20184;-76
2022/12/17 15:45:09;;;;;;;84.68;36.65;;;0.60;99.90;;;;;;5027637;28;20202;-76
2022/12/17 15:47:35;;;;;;;95.70;40.65;;;0.60;99.90;;;;;;5064645;28;20232;-77
2022/12/17 15:50:02;;;;;;;86.95;34.22;;;0.60;99.90;;;;;;5037176;28;20217;-75
2022/12/17 15:52:28;;;;;;;90.70;39.17;;;0.50;99.90;;;;;;5032522;28;20601;-76
2022/12/17 15:54:54;;;;;;;95.05;37.22;;;0.40;99.90;;;;;;5026954;28;20188;-76
2022/12/17 15:57:19;;;;;;;88.82;37.38;;;0.40;99.90;;;;;;5025943;28;20184;-80
2022/12/17 15:59:45;;;;;;;98.00;40.77;;;0.40;99.90;;;;;;5030387;28;20232;-76
2022/12/17 16:02:11;;;;;;;93.93;39.43;;;0.30;99.90;;;;;;5027554;28;20198;-76
2022/12/17 16:04:37;;;;;;;92.63;38.20;;;0.30;99.90;;;;;;5032871;28;20303;-76
2022/12/17 16:07:04;;;;;;;92.85;38.20;;;0.30;99.90;;;;;;5031877;28;20195;-76
2022/12/17 16:09:30;;;;;;;93.07;37.00;;;0.30;99.90;;;;;;5031903;28;20184;-76
2022/12/17 16:11:56;;;;;;;90.47;38.30;;;0.30;99.90;;;;;;5043236;28;20183;-77
2022/12/17 16:14:22;;;;;;;92.03;37.53;;;0.20;99.90;;;;;;5028200;28;20239;-81
2022/12/17 16:16:49;;;;;;;86.47;35.83;;;0.20;99.90;;;;;;5030387;28;20303;-77
2022/12/17 16:19:14;;;;;;;69.40;25.60;;;0.20;99.90;;;;;;5028809;28;20199;-76
2022/12/17 16:21:41;;;;;;;82.82;31.50;;;0.20;99.90;;;;;;5033472;28;20177;-77
2022/12/17 16:24:09;;;;;;;87.27;37.10;;;0.10;99.90;;;;;;5028020;28;20211;-77
2022/12/17 16:26:36;;;;;;;91.95;36.25;;;0.10;99.90;;;;;;5026576;28;20188;-77
2022/12/17 16:29:02;;;;;;;95.05;38.47;;;0.10;99.90;;;;;;5026362;28;20287;-78
2022/12/17 16:31:28;;;;;;;96.40;36.67;;;0.00;99.90;;;;;;5043837;28;20636;-81
2022/12/17 16:33:53;;;;;;;99.27;36.07;;;0.00;99.90;;;;;;5030798;28;20202;-77
2022/12/17 16:36:20;;;;;;;92.67;35.57;;;0.00;99.90;;;;;;5029096;28;20191;-76
2022/12/17 16:38:51;;;;;;;89.90;34.67;;;0.00;99.90;;;;;;5032578;28;20627;-76
2022/12/17 16:41:17;;;;;;;79.33;30.77;;;-0.10;99.90;;;;;;5029264;28;20627;-75
2022/12/17 16:43:43;;;;;;;88.73;35.40;;;-0.10;99.90;;;;;;5032723;28;20220;-76
2022/12/17 16:46:25;;;;;;;94.10;34.23;;;-0.10;99.90;;;;;;5024208;28;20180;-78
2022/12/17 16:48:51;;;;;;;87.70;30.90;;;-0.20;99.90;;;;;;5041925;28;20223;-78
2022/12/17 16:51:19;;;;;;;92.63;33.87;;;-0.20;99.90;;;;;;5028929;28;20190;-76
2022/12/17 16:53:45;;;;;;;86.00;33.43;;;-0.20;99.90;;;;;;5048035;28;20266;-76
2022/12/17 16:56:26;;;;;;;91.87;35.67;;;-0.20;99.90;;;;;;5031993;28;20270;-77
2022/12/17 16:58:52;;;;;;;84.50;33.03;;;-0.30;99.90;;;;;;5028755;28;20204;-80
2022/12/17 17:01:20;;;;;;;93.27;33.53;;;-0.30;99.90;;;;;;5026278;28;20215;-76
2022/12/17 17:03:46;;;;;;;88.15;31.15;;;-0.30;99.90;;;;;;5030853;28;20219;-76
2022/12/17 17:06:12;;;;;;;76.93;28.47;;;-0.40;99.90;;;;;;5046597;28;20187;-76
2022/12/17 17:08:38;;;;;;;84.43;32.73;;;-0.40;99.90;;;;;;5044726;28;20689;-76
2022/12/17 17:11:18;;;;;;;84.20;30.40;;;-0.40;99.90;;;;;;5028406;28;20198;-75
2022/12/17 17:13:44;;;;;;;85.70;31.93;;;-0.40;99.90;;;;;;5012855;28;20269;-75
2022/12/17 17:16:10;;;;;;;82.87;28.87;;;-0.50;99.90;;;;;;5021510;28;20216;-75
2022/12/17 17:18:36;;;;;;;88.23;33.67;;;-0.50;99.90;;;;;;5025447;28;20195;-77
2022/12/17 17:21:33;;;;;;;96.37;35.27;;;-0.40;99.90;;;;;;5031507;28;20266;-76
2022/12/17 17:24:08;;;;;;;84.17;30.83;;;-0.50;99.90;;;;;;5027061;28;20230;-82
2022/12/17 17:26:36;;;;;;;92.47;33.40;;;-0.50;99.90;;;;;;5012520;28;20631;-77
2022/12/17 17:29:03;;;;;;;85.87;32.13;;;-0.50;99.90;;;;;;5012093;28;20176;-76
2022/12/17 17:31:29;;;;;;;86.47;31.00;;;-0.60;99.90;;;;;;5031273;28;20216;-76
2022/12/17 17:33:55;;;;;;;82.37;29.83;;;-0.50;99.90;;;;;;5031718;28;20666;-76
2022/12/17 17:36:23;;;;;;;89.03;31.97;;;-0.60;99.90;;;;;;5017232;28;20689;-79
2022/12/17 17:38:50;;;;;;;92.93;32.83;;;-0.60;99.90;;;;;;5032176;28;20610;-76
2022/12/17 17:41:19;;;;;;;87.27;30.53;;;-0.50;99.90;;;;;;5027887;28;20203;-76
2022/12/17 17:43:45;;;;;;;85.90;31.30;;;-0.60;99.90;;;;;;5033402;28;20215;-76
2022/12/17 17:46:14;;;;;;;84.80;31.07;;;-0.60;99.90;;;;;;5034001;28;20194;-77
2022/12/17 17:48:41;;;;;;;77.73;30.27;;;-0.60;99.90;;;;;;5062569;28;20297;-80
2022/12/17 17:51:19;;;;;;;88.03;31.30;;;-0.70;99.90;;;;;;5058507;28;20275;-77
2022/12/17 17:53:46;;;;;;;75.83;30.77;;;-0.70;99.90;;;;;;5034283;28;20238;-77
2022/12/17 17:56:24;;;;;;;78.23;28.63;;;-0.70;99.90;;;;;;5043619;28;20365;-78
2022/12/17 17:58:53;;;;;;;82.47;28.97;;;-0.70;99.90;;;;;;5031864;28;20180;-77
2022/12/17 18:01:21;;;;;;;81.87;28.80;;;-0.70;99.90;;;;;;5035232;28;20191;-78
2022/12/17 18:03:47;;;;;;;84.30;30.30;;;-0.80;99.90;;;;;;5035557;28;20242;-77
2022/12/17 18:06:13;;;;;;;82.07;31.30;;;-0.80;99.90;;;;;;5035877;28;20724;-75
2022/12/17 18:08:41;;;;;;;77.45;27.80;;;-0.80;99.90;;;;;;5034609;28;20187;-76
2022/12/17 18:11:09;;;;;;;94.33;33.90;;;-0.80;99.90;;;;;;5033272;28;20255;-76
2022/12/17 18:13:54;;;;;;;84.10;29.53;;;-0.80;99.90;;;;;;5036083;28;20503;-75
2022/12/17 18:16:25;;;;;;;85.10;28.53;;;-0.80;99.90;;;;;;5030421;28;20184;-75
2022/12/17 18:19:03;;;;;;;84.33;30.10;;;-0.80;99.90;;;;;;5029701;28;20191;-76
2022/12/17 18:21:30;;;;;;;81.53;27.60;;;-0.80;99.90;;;;;;5035550;28;20263;-75
2022/12/17 18:24:00;;;;;;;84.07;29.60;;;-0.90;99.90;;;;;;5035542;28;20212;-76
2022/12/17 18:26:28;;;;;;;78.33;29.23;;;-0.90;99.90;;;;;;5033443;28;20172;-77
2022/12/17 18:28:55;;;;;;;94.77;33.60;;;-1.00;99.90;;;;;;5031997;28;20226;-75
2022/12/17 18:31:25;;;;;;;85.53;30.50;;;-1.00;99.90;;;;;;5050018;28;20192;-76
2022/12/17 18:33:57;;;;;;;94.00;33.17;;;-1.00;99.90;;;;;;5042361;28;20641;-75
2022/12/17 18:36:28;;;;;;;72.30;25.07;;;-1.00;99.90;;;;;;5016477;28;20188;-79
2022/12/17 18:39:21;;;;;;;73.87;25.07;;;-1.00;99.90;;;;;;5044937;28;20250;-76
2022/12/17 18:44:36;;;;;;;82.07;28.17;;;-1.10;99.90;;;;;;5034437;28;20204;-75
2022/12/17 18:47:02;;;;;;;74.97;26.07;;;-1.10;99.90;;;;;;5031869;28;20188;-76
2022/12/17 18:49:28;;;;;;;69.63;24.87;;;-1.10;99.90;;;;;;5033548;28;20263;-76
2022/12/17 18:51:54;;;;;;;91.07;29.97;;;-1.10;99.90;;;;;;5050125;28;20207;-77
2022/12/17 18:54:26;;;;;;;83.23;28.87;;;-1.10;99.90;;;;;;5040056;28;20184;-75
2022/12/17 18:56:53;;;;;;;80.97;29.47;;;-1.10;99.90;;;;;;5032386;28;20180;-77
2022/12/17 18:59:21;;;;;;;84.47;29.27;;;-1.10;99.90;;;;;;5030813;28;20226;-78
2022/12/17 19:01:48;;;;;;;85.33;28.07;;;-1.10;99.90;;;;;;5034444;28;20267;-78
2022/12/17 19:04:19;;;;;;;92.53;33.40;;;-1.10;99.90;;;;;;5029917;28;20219;-77
2022/12/17 19:06:47;;;;;;;83.40;28.60;;;-1.10;99.90;;;;;;5045960;28;20546;-76
2022/12/17 19:09:27;;;;;;;81.60;27.40;;;-1.10;99.90;;;;;;5031937;28;20180;-76
2022/12/17 19:11:54;;;;;;;75.80;28.07;;;-1.10;99.90;;;;;;5034151;28;20310;-76
2022/12/17 19:14:21;;;;;;;84.40;26.83;;;-1.10;99.90;;;;;;5032822;28;20184;-79
2022/12/17 19:16:48;;;;;;;78.27;24.67;;;-1.10;99.90;;;;;;5029625;28;20179;-83
2022/12/17 19:19:14;;;;;;;67.03;23.83;;;-1.10;99.90;;;;;;5030010;28;20297;-76
2022/12/17 19:21:40;;;;;;;82.13;29.10;;;-1.10;99.90;;;;;;5052882;28;20662;-76
2022/12/17 19:24:09;;;;;;;71.67;25.80;;;-1.10;99.90;;;;;;5032767;28;20220;-78
2022/12/17 19:26:35;;;;;;;78.53;27.47;;;-1.20;99.90;;;;;;5014337;28;20177;-76
2022/12/17 19:29:02;;;;;;;84.60;29.97;;;-1.20;99.90;;;;;;5021752;28;20188;-80
2022/12/17 19:31:29;;;;;;;90.20;31.63;;;-1.20;99.90;;;;;;5023824;28;20288;-76
2022/12/17 19:33:57;;;;;;;91.47;32.97;;;-1.20;99.90;;;;;;5026389;28;20184;-79
2022/12/17 19:36:24;;;;;;;96.83;32.33;;;-1.20;99.90;;;;;;5015361;28;20715;-77
2022/12/17 19:38:53;;;;;;;100.23;32.97;;;-1.20;99.90;;;;;;5013476;28;20173;-76
2022/12/17 19:41:19;;;;;;;92.63;29.53;;;-1.20;99.90;;;;;;5026695;28;20176;-76
2022/12/17 19:43:47;;;;;;;91.80;32.20;;;-1.10;99.90;;;;;;5020505;28;20212;-76
2022/12/17 19:46:16;;;;;;;89.30;32.07;;;-1.20;99.90;;;;;;5031296;28;20184;-77
2022/12/17 19:48:43;;;;;;;97.57;34.27;;;-1.10;99.90;;;;;;5031590;28;20225;-76
2022/12/17 19:51:11;;;;;;;101.30;33.90;;;-1.10;99.90;;;;;;5029994;28;20266;-82
2022/12/17 19:53:38;;;;;;;72.47;28.20;;;-1.20;99.90;;;;;;5031387;28;20546;-83
2022/12/17 19:56:41;;;;;;;84.10;26.83;;;-1.20;99.90;;;;;;5027298;28;20750;-80
2022/12/17 19:59:08;;;;;;;86.50;28.17;;;-1.20;99.90;;;;;;4986358;28;20185;-80
2022/12/17 20:01:38;;;;;;;94.70;34.40;;;-1.30;99.90;;;;;;5015810;28;20508;-76
2022/12/17 20:04:04;;;;;;;77.43;28.10;;;-1.20;99.90;;;;;;5030141;28;20290;-77
2022/12/17 20:06:32;;;;;;;92.53;32.10;;;-1.20;99.90;;;;;;5017634;28;20184;-76
2022/12/17 20:08:59;;;;;;;82.20;29.80;;;-1.20;99.90;;;;;;5035657;28;20184;-79
2022/12/17 20:11:31;;;;;;;84.13;31.83;;;-1.20;99.90;;;;;;5041553;28;20611;-77
2022/12/17 20:14:12;;;;;;;82.90;32.57;;;-1.20;99.90;;;;;;5013808;28;20204;-75
2022/12/17 20:16:50;;;;;;;85.43;32.03;;;-1.20;99.90;;;;;;5029295;28;20168;-76
2022/12/17 20:19:18;;;;;;;83.17;31.77;;;-1.20;99.90;;;;;;5033716;28;20672;-77
2022/12/17 20:21:44;;;;;;;85.00;32.90;;;-1.20;99.90;;;;;;5050511;28;20179;-83
2022/12/17 20:24:11;;;;;;;82.20;32.53;;;-1.30;99.90;;;;;;5047364;28;20247;-78
2022/12/17 20:26:38;;;;;;;84.97;31.47;;;-1.30;99.90;;;;;;5018100;28;20570;-78
2022/12/17 20:29:05;;;;;;;91.43;31.30;;;-1.30;99.90;;;;;;5027316;28;20184;-81
2022/12/17 20:31:31;;;;;;;80.83;31.80;;;-1.30;99.90;;;;;;5032295;28;20278;-77
2022/12/17 20:33:59;;;;;;;72.90;28.70;;;-1.30;99.90;;;;;;5027747;28;20234;-77
2022/12/17 20:36:25;;;;;;;85.97;31.47;;;-1.30;99.90;;;;;;5043984;28;20200;-77
2022/12/17 20:38:51;;;;;;;84.27;32.67;;;-1.30;99.90;;;;;;5028687;28;20187;-77
2022/12/17 20:41:20;;;;;;;81.57;31.67;;;-1.30;99.90;;;;;;5045214;28;20298;-75
2022/12/17 20:43:47;;;;;;;75.27;28.97;;;-1.40;99.90;;;;;;5032293;28;20212;-75
2022/12/17 20:46:14;;;;;;;83.87;30.93;;;-1.40;99.90;;;;;;5032847;28;20624;-75
2022/12/17 20:48:41;;;;;;;85.17;31.93;;;-1.40;99.90;;;;;;5032628;28;20634;-76
2022/12/17 20:51:08;;;;;;;94.97;36.50;;;-1.40;99.90;;;;;;5032764;28;20554;-75
2022/12/17 20:53:35;;;;;;;81.50;31.63;;;-1.40;99.90;;;;;;5031895;28;20194;-79
2022/12/17 20:56:12;;;;;;;81.77;33.97;;;-1.40;99.90;;;;;;5029830;28;20246;-76
2022/12/17 20:58:39;;;;;;;94.03;37.83;;;-1.40;99.90;;;;;;5029740;28;20211;-79
2022/12/17 21:01:17;;;;;;;92.27;35.97;;;-1.50;99.90;;;;;;5031322;28;20238;-76
2022/12/17 21:03:43;;;;;;;89.03;35.50;;;-1.50;99.90;;;;;;5028502;28;20199;-79
2022/12/17 21:06:12;;;;;;;90.67;33.47;;;-1.50;99.90;;;;;;5041097;28;20586;-76
2022/12/17 21:08:39;;;;;;;89.43;34.97;;;-1.60;99.90;;;;;;5026969;28;20547;-82
2022/12/17 21:11:05;;;;;;;70.70;27.70;;;-1.60;99.90;;;;;;5033902;28;20184;-77
2022/12/17 21:13:32;;;;;;;84.87;33.77;;;-1.50;99.90;;;;;;5034269;28;20294;-75
2022/12/17 21:15:59;;;;;;;89.93;33.10;;;-1.50;99.90;;;;;;5020068;28;20220;-75
2022/12/17 21:18:27;;;;;;;94.97;37.10;;;-1.60;99.90;;;;;;5021681;28;20270;-76
2022/12/17 21:21:07;;;;;;;83.20;33.70;;;-1.50;99.90;;;;;;5032985;28;20234;-75
2022/12/17 21:23:34;;;;;;;80.77;30.97;;;-1.60;99.90;;;;;;5033658;28;20199;-76
2022/12/17 21:26:03;;;;;;;82.10;30.40;;;-1.50;99.90;;;;;;5030696;28;20175;-76
2022/12/17 21:28:29;;;;;;;89.17;34.57;;;-1.50;99.90;;;;;;5026322;28;20188;-79
2022/12/17 21:30:55;;;;;;;85.00;35.07;;;-1.50;99.90;;;;;;5028618;28;20187;-75
2022/12/17 21:33:22;;;;;;;97.90;32.33;;;-1.50;99.90;;;;;;5031447;28;20191;-75
2022/12/17 21:35:47;;;;;;;85.67;34.13;;;-1.50;99.90;;;;;;5029436;28;20569;-74
2022/12/17 21:38:14;;;;;;;90.30;35.60;;;-1.50;99.90;;;;;;5065447;28;20249;-75
2022/12/17 21:40:41;;;;;;;91.97;36.70;;;-1.50;99.90;;;;;;5013656;28;21482;-75
2022/12/17 21:43:06;;;;;;;89.23;33.27;;;-1.50;99.90;;;;;;5031627;28;20187;-75
2022/12/17 21:45:38;;;;;;;83.90;31.37;;;-1.50;99.90;;;;;;5033251;28;20183;-76
2022/12/17 21:48:05;;;;;;;101.80;36.50;;;-1.50;99.90;;;;;;5028303;28;20227;-75
2022/12/17 21:50:31;;;;;;;96.23;34.80;;;-1.50;99.90;;;;;;5031611;28;20176;-76
2022/12/17 21:52:58;;;;;;;94.13;33.60;;;-1.60;99.90;;;;;;5031158;28;20190;-77
2022/12/17 21:55:24;;;;;;;111.93;42.73;;;-1.60;99.90;;;;;;5031705;28;20196;-77
2022/12/17 21:57:50;;;;;;;66.63;23.63;;;-1.50;99.90;;;;;;5029995;28;20179;-76
2022/12/17 22:00:16;;;;;;;65.43;23.97;;;-1.60;99.90;;;;;;5026092;28;20184;-80
2022/12/17 22:02:42;;;;;;;91.27;32.33;;;-1.60;99.90;;;;;;5037784;28;20186;-77
2022/12/17 22:05:08;;;;;;;104.90;35.67;;;-1.60;99.90;;;;;;5031851;28;20204;-77
2022/12/17 22:07:34;;;;;;;97.73;36.57;;;-1.70;99.90;;;;;;5025951;28;20180;-77
2022/12/17 22:10:00;;;;;;;87.40;33.23;;;-1.70;99.90;;;;;;5025083;28;20188;-76
2022/12/17 22:15:10;;;;;;;91.07;33.60;;;-1.70;99.90;;;;;;5031820;28;20258;-76
2022/12/17 22:17:39;;;;;;;89.97;31.67;;;-1.70;99.90;;;;;;5031657;28;20191;-76
2022/12/17 22:20:05;;;;;;;83.00;31.27;;;-1.70;99.90;;;;;;5030718;28;20184;-76
2022/12/17 22:22:31;;;;;;;97.47;36.17;;;-1.70;99.90;;;;;;5026997;28;20191;-76
2022/12/17 22:24:57;;;;;;;109.70;36.87;;;-1.70;99.90;;;;;;5023877;28;20208;-76
2022/12/17 22:27:23;;;;;;;102.37;34.17;;;-1.70;99.90;;;;;;5030393;28;20627;-76
2022/12/17 22:35:17;;;;;;;89.97;32.23;;;-1.80;99.90;;;;;;5033792;28;20188;-76
2022/12/17 22:37:43;;;;;;;80.57;28.97;;;-1.80;99.90;;;;;;5034928;28;20187;-82
2022/12/17 22:40:10;;;;;;;83.43;29.90;;;-1.80;99.90;;;;;;5029286;28;20180;-76
2022/12/17 22:45:19;;;;;;;86.37;32.10;;;-1.90;99.90;;;;;;5034591;28;20279;-80
2022/12/17 22:47:45;;;;;;;84.07;31.07;;;-1.90;99.90;;;;;;5034680;28;20267;-75
2022/12/17 22:50:11;;;;;;;88.97;30.93;;;-1.90;99.90;;;;;;5033459;28;20706;-75
2022/12/17 22:52:37;;;;;;;76.23;27.60;;;-1.90;99.90;;;;;;5035202;28;20204;-74
2022/12/17 22:55:03;;;;;;;88.85;30.60;;;-2.00;99.90;;;;;;5034128;28;20184;-76
2022/12/17 22:57:29;;;;;;;59.53;22.97;;;-1.90;99.90;;;;;;5035418;28;20305;-75
2022/12/17 22:59:55;;;;;;;90.73;29.90;;;-2.00;99.90;;;;;;5030789;28;20275;-75
2022/12/17 23:02:20;;;;;;;71.70;24.27;;;-2.00;99.90;;;;;;5022561;28;20196;-76
2022/12/17 23:04:46;;;;;;;88.57;32.70;;;-2.00;99.90;;;;;;5029330;28;20217;-75
2022/12/17 23:07:12;;;;;;;82.23;29.33;;;-2.00;99.90;;;;;;5074607;28;20669;-77
2022/12/17 23:09:37;;;;;;;86.20;31.67;;;-2.00;99.90;;;;;;5031663;28;20662;-81
2022/12/17 23:14:48;;;;;;;75.23;25.67;;;-1.90;99.90;;;;;;5054802;28;20251;-74
2022/12/17 23:17:14;;;;;;;99.47;31.67;;;-2.00;99.90;;;;;;5029248;28;20183;-76
2022/12/17 23:19:39;;;;;;;89.70;31.33;;;-1.90;99.90;;;;;;5031959;28;20180;-77
2022/12/17 23:22:06;;;;;;;80.23;29.53;;;-2.00;99.90;;;;;;5032637;28;20268;-75
2022/12/17 23:24:32;;;;;;;57.77;19.70;;;-1.90;99.90;;;;;;5030916;28;20246;-75
2022/12/17 23:26:58;;;;;;;77.97;30.83;;;-1.90;99.90;;;;;;5031829;28;20271;-75
2022/12/17 23:29:23;;;;;;;72.80;25.20;;;-2.00;99.90;;;;;;5017467;28;20188;-75
2022/12/17 23:31:50;;;;;;;84.77;29.07;;;-2.00;99.90;;;;;;5033878;28;20679;-75
2022/12/17 23:34:15;;;;;;;99.03;33.03;;;-2.00;99.90;;;;;;5027236;28;20291;-77
2022/12/17 23:36:41;;;;;;;57.57;17.43;;;-2.00;99.90;;;;;;5037090;28;20200;-76
2022/12/17 23:39:07;;;;;;;86.83;30.13;;;-2.00;99.90;;;;;;5033194;28;20177;-76
2022/12/17 23:41:33;;;;;;;78.57;27.63;;;-2.00;99.90;;;;;;5043401;28;20346;-76
2022/12/17 23:43:59;;;;;;;70.90;26.50;;;-2.10;99.90;;;;;;5027847;28;20200;-80
2022/12/17 23:46:27;;;;;;;78.67;26.90;;;-2.10;99.90;;;;;;5030864;28;20176;-77
2022/12/17 23:48:53;;;;;;;73.33;23.67;;;-2.10;99.90;;;;;;5029471;28;20567;-81
2022/12/17 23:51:21;;;;;;;83.20;29.17;;;-2.20;99.90;;;;;;5031051;28;20191;-76
2022/12/17 23:53:47;;;;;;;82.83;29.93;;;-2.20;99.90;;;;;;5033763;28;20184;-79
2022/12/17 23:56:19;;;;;;;71.47;23.37;;;-2.20;99.90;;;;;;5033561;28;20190;-75
2022/12/17 23:58:46;;;;;;;90.10;28.97;;;-2.20;99.90;;;;;;5065948;28;20215;-76
